Stations météo

réclame
Mon MeteoGroup
Zeebrugge, Belgique (6418): Température de l'air & dewpoint: 12.02.2019 17:00:00 - 18.02.2019 17:00:00 (CET)Zeebrugge, Belgique (6418): Vitesse du vent & gusts: 12.02.2019 17:00:00 - 18.02.2019 17:00:00 (CET)Zeebrugge, Belgique (6418): Direction du vent: 12.02.2019 17:00:00 - 18.02.2019 17:00:00 (CET)Zeebrugge, Belgique (6418): reduced air pressure: 12.02.2019 17:00:00 - 18.02.2019 17:00:00 (CET)Zeebrugge, Belgique (6418): Ensoleillement: 12.02.2019 17:00:00 - 18.02.2019 17:00:00 (CET)Zeebrugge, Belgique (6418): Quantités de précipitations: 12.02.2019 17:00:00 - 18.02.2019 17:00:00 (CET)
Date & Time tt [°C] td [°C] ff [km/h] ff [knt] fx [km/h] fx [knt] dd ppp [hPa] sd [min] rr [mm]
18.02.2019 17:00:00 10,4 6,0 11 6 17 9 W 1015,3 15 0,0
18.02.2019 16:00:00 11,6 6,1 11 6 22 12 WNW 1015,6 52 0,0
18.02.2019 15:00:00 12,6 7,6 17 9 24 13 SSW 1015,4 60 0,0
18.02.2019 14:00:00 11,9 7,3 15 8 24 13 SSW 1016,1 60 0,0
18.02.2019 13:00:00 11,3 7,1 14 8 21 12 SSW 1016,9 60 0,0
18.02.2019 12:00:00 9,2 5,1 14 7 19 11 SSW 1017,7 60 0,0
18.02.2019 11:00:00 8,4 4,7 13 7 19 11 SSW 1017,9 60 0,0
18.02.2019 10:00:00 7,0 3,3 18 10 22 12 S 1018,1 60 0,0
18.02.2019 09:00:00 6,2 2,8 18 10 22 12 SSE 1017,9 27 0,0
18.02.2019 08:00:00 5,6 2,3 13 7 19 10 SSE 1017,6 0 0,0
18.02.2019 07:00:00 5,7 2,1 11 6 17 9 SSE 1017,8 0 0,0
18.02.2019 06:00:00 6,2 1,8 11 6 18 10 SSE 1018,0 0 0,0
18.02.2019 05:00:00 7,2 2,5 11 6 18 10 S 1018,0 0 0,0
18.02.2019 04:00:00 7,2 2,3 13 7 18 10 S 1018,2 0 0,0
18.02.2019 03:00:00 8,1 3,1 15 8 22 12 S 1018,5 0 0,0
18.02.2019 02:00:00 7,4 2,0 15 8 23 13 SSE 1018,5 0 0,0
18.02.2019 01:00:00 9,4 3,5 18 10 22 12 S 1018,4 0 0,0
18.02.2019 00:00:00 9,1 3,3 18 10 24 13 S 1018,4 0 0,0
17.02.2019 23:00:00 9,2 3,7 15 8 24 13 S 1018,7 0 0,0
17.02.2019 22:00:00 10,0 3,6 18 10 22 12 SSW 1019,0 0 0,0
17.02.2019 21:00:00 9,8 3,6 14 8 21 11 SSW 1018,6 0 0,0
17.02.2019 20:00:00 9,4 3,0 14 8 26 14 S 1018,5 0 0,0
17.02.2019 19:00:00 10,4 3,2 18 10 29 16 S 1018,0 0 0,0
17.02.2019 18:00:00 12,4 3,4 21 11 32 17 S 1017,5 28 0,0
17.02.2019 17:00:00 12,4 3,2 23 12 36 19 S 1017,2 60 0,0
17.02.2019 16:00:00 12,9 3,3 24 13 39 21 S 1017,4 60 0,0
17.02.2019 15:00:00 13,9 1,9 26 14 36 19 S 1017,0 60 0,0
17.02.2019 14:00:00 13,4 1,7 25 14 35 19 S 1017,6 60 0,0
17.02.2019 13:00:00 12,3 2,5 25 14 31 17 SSE 1018,1 60 0,0
17.02.2019 12:00:00 10,7 3,6 22 12 29 15 SSE 1018,8 60 0,0
17.02.2019 11:00:00 9,0 3,0 21 11 27 15 SSE 1019,3 60 0,0
17.02.2019 10:00:00 6,6 2,2 19 11 27 15 SSE 1019,6 60 0,0
17.02.2019 09:00:00 6,0 2,4 21 12 27 15 SSE 1019,8 11 0,0
17.02.2019 08:00:00 5,7 2,3 17 9 23 13 SSE 1020,1 0 0,0
17.02.2019 07:00:00 6,1 2,8 18 10 23 12 SSE 1020,1 0 0,0
17.02.2019 06:00:00 6,1 3,0 18 10 22 12 SSE 1020,7 0 0,0
17.02.2019 05:00:00 5,9 3,2 17 9 19 10 SSE 1021,1 0 0,0
17.02.2019 04:00:00 6,0 3,5 15 8 21 11 SSE 1021,7 0 0,0
17.02.2019 03:00:00 6,4 4,1 17 9 19 11 SSE 1022,3 0 0,0
17.02.2019 02:00:00 6,2 3,9 14 8 16 9 SSE 1022,7 0 0,0
17.02.2019 01:00:00 6,8 4,4 14 8 16 9 SSE 1023,5 0 0,0
17.02.2019 00:00:00 7,2 4,7 11 6 16 9 SSE 1023,7 0 0,0
16.02.2019 23:00:00 7,4 4,4 12 6 15 8 SSE 1023,7 0 0,0
16.02.2019 22:00:00 8,4 4,8 5 3 14 7 S 1024,3 0 0,0
16.02.2019 21:00:00 8,7 4,4 9 5 13 7 S 1024,4 0 0,0
16.02.2019 20:00:00 8,4 3,6 8 4 11 6 SSE 1024,6 0 0,0
16.02.2019 19:00:00 10,2 4,7 11 6 16 8 S 1024,6 0 0,0
16.02.2019 18:00:00 10,8 5,0 13 7 20 11 S 1024,5 34 0,0
16.02.2019 17:00:00 11,3 5,7 16 9 21 11 S 1024,6 60 0,0
16.02.2019 16:00:00 11,4 5,6 13 7 18 10 S 1024,8 60 0,0
16.02.2019 15:00:00 12,5 6,5 14 8 22 12 SSW 1025,1 60 0,0
16.02.2019 14:00:00 11,4 5,7 17 9 23 12 SSW 1025,7 60 0,0
16.02.2019 13:00:00 10,3 5,0 18 10 24 13 SSW 1026,0 60 0,0
16.02.2019 12:00:00 9,0 4,0 18 10 27 14 SSW 1025,9 60 0,0
16.02.2019 11:00:00 7,1 2,6 20 11 28 15 SSW 1025,9 60 0,0
16.02.2019 10:00:00 6,1 2,3 20 11 27 15 S 1025,9 60 0,0
16.02.2019 09:00:00 5,5 2,0 19 10 23 13 S 1025,6 36 0,0
16.02.2019 08:00:00 5,8 2,1 20 11 25 13 S 1025,1 0 0,0
16.02.2019 07:00:00 5,9 2,4 14 8 21 11 S 1024,7 0 0,0
16.02.2019 06:00:00 6,2 2,0 14 7 22 12 S 1024,4 0 0,0
16.02.2019 05:00:00 7,3 3,2 18 10 23 12 S 1024,4 0 0,0
16.02.2019 04:00:00 6,5 3,0 21 11 25 14 S 1024,4 0 0,0
16.02.2019 03:00:00 7,6 3,9 22 12 26 14 S 1024,9 0 0,0
16.02.2019 02:00:00 7,1 3,5 21 12 27 15 S 1025,5 0 0,0
16.02.2019 01:00:00 - - - - - - - - 0 -
16.02.2019 00:00:00 8,3 3,2 12 6 26 14 SW 1026,0 0 0,0
15.02.2019 23:00:00 8,9 3,4 19 10 24 13 S 1025,8 0 0,0
15.02.2019 22:00:00 8,6 2,8 16 9 19 10 S 1026,2 0 0,0
15.02.2019 21:00:00 9,1 2,6 14 8 26 14 S 1026,4 0 0,0
15.02.2019 20:00:00 11,2 3,0 17 9 22 12 S 1026,7 0 0,0
15.02.2019 19:00:00 11,1 3,3 18 10 23 12 SSE 1026,6 3 0,0
15.02.2019 18:00:00 12,6 3,1 15 8 21 11 S 1026,8 60 0,0
15.02.2019 17:00:00 12,6 2,6 16 9 24 13 SSE 1027,1 60 0,0
15.02.2019 16:00:00 12,4 2,7 21 11 24 13 SSE 1027,6 60 0,0
15.02.2019 15:00:00 12,1 3,0 19 10 23 12 SSE 1028,2 60 0,0
15.02.2019 14:00:00 11,5 2,0 17 9 24 13 SSE 1029,1 60 0,0
15.02.2019 13:00:00 10,8 1,5 18 10 26 14 S 1029,5 60 0,0
15.02.2019 12:00:00 9,3 2,3 22 12 29 16 SSE 1030,1 60 0,0
15.02.2019 11:00:00 7,8 1,4 20 11 27 15 SSE 1030,6 60 0,0
15.02.2019 10:00:00 6,1 0,7 15 8 18 10 S 1030,9 60 0,0
15.02.2019 09:00:00 4,7 -0,1 11 6 20 11 S 1031,0 39 0,0
15.02.2019 08:00:00 4,2 0,1 11 6 20 11 SSE 1030,6 0 0,0
15.02.2019 07:00:00 4,7 0,6 14 8 19 10 SSE 1030,8 0 0,0
15.02.2019 06:00:00 4,5 0,7 11 6 13 7 SE 1030,9 0 0,0
15.02.2019 05:00:00 4,8 1,0 9 5 15 8 SE 1031,0 0 0,0
15.02.2019 04:00:00 5,0 1,2 13 7 16 9 SSE 1031,3 0 0,0
15.02.2019 03:00:00 5,5 2,1 15 8 17 9 SSE 1031,8 0 0,0
15.02.2019 02:00:00 5,2 1,3 11 6 14 8 SSE 1032,1 0 0,0
15.02.2019 01:00:00 5,4 0,9 7 4 10 5 ESE 1032,6 0 0,0
15.02.2019 00:00:00 6,3 1,6 8 5 11 6 S 1032,4 0 0,0
14.02.2019 23:00:00 6,7 1,7 9 5 12 7 SE 1032,5 0 0,0
14.02.2019 22:00:00 7,3 1,9 9 5 11 6 ESE 1032,6 0 0,0
14.02.2019 21:00:00 8,0 2,3 7 4 10 5 ESE 1032,5 0 0,0
14.02.2019 20:00:00 8,2 1,8 5 3 9 5 ESE 1032,8 0 0,0
14.02.2019 19:00:00 10,0 2,5 7 4 16 9 S 1032,9 0 0,0
14.02.2019 18:00:00 10,6 2,7 14 8 20 11 SSE 1032,7 55 0,0
14.02.2019 17:00:00 11,0 2,9 15 8 22 12 SSE 1032,9 60 0,0
14.02.2019 16:00:00 11,1 2,9 16 9 20 11 SSE 1033,5 60 0,0
14.02.2019 15:00:00 10,6 3,8 16 9 21 12 SE 1033,9 60 0,0
14.02.2019 14:00:00 10,0 3,4 14 8 18 10 SSE 1034,4 60 0,0
14.02.2019 13:00:00 8,9 3,0 7 4 21 11 SSE 1035,2 60 0,0
14.02.2019 12:00:00 7,3 3,1 - - - - - 1035,4 40 -
14.02.2019 11:00:00 5,5 2,5 9 5 19 10 SE 1035,6 60 0,0
14.02.2019 10:00:00 3,7 1,3 13 7 16 9 SSE 1035,4 60 0,0
14.02.2019 09:00:00 3,1 0,6 11 6 16 8 SSE 1035,4 37 0,0
14.02.2019 08:00:00 3,3 0,7 9 5 14 8 S 1035,2 0 0,0
14.02.2019 07:00:00 3,1 0,1 7 4 19 10 SSE 1034,8 0 0,0
14.02.2019 06:00:00 3,8 0,6 15 8 22 12 S 1034,8 0 0,0
14.02.2019 05:00:00 4,1 0,8 17 9 24 13 S 1034,3 0 0,0
14.02.2019 04:00:00 4,4 1,5 18 10 24 13 S 1034,3 0 0,0
14.02.2019 03:00:00 4,1 1,7 14 8 21 12 S 1034,5 0 0,0
14.02.2019 02:00:00 4,0 1,6 11 6 21 12 S 1034,8 0 0,0
14.02.2019 01:00:00 4,1 1,7 18 10 21 11 S 1034,9 0 0,0
14.02.2019 00:00:00 4,5 1,9 14 8 26 14 S 1034,8 0 0,0
13.02.2019 23:00:00 4,7 2,0 23 13 29 15 S 1034,7 0 0,0
13.02.2019 22:00:00 5,1 2,0 18 10 26 14 S 1035,0 0 0,0
13.02.2019 21:00:00 5,3 1,7 14 7 25 14 S 1035,1 0 0,0
13.02.2019 20:00:00 6,2 2,1 20 11 24 13 S 1035,2 0 0,0
13.02.2019 19:00:00 6,8 2,4 18 10 21 11 S 1035,1 0 0,0
13.02.2019 18:00:00 7,2 2,5 19 10 25 13 S 1034,8 14 0,0
13.02.2019 17:00:00 7,7 3,0 19 10 28 15 S 1035,0 60 0,0
13.02.2019 16:00:00 8,0 3,2 20 11 27 15 SSW 1035,0 60 0,0
13.02.2019 15:00:00 7,9 3,2 20 11 30 16 S 1035,0 60 0,0
13.02.2019 14:00:00 7,6 3,4 24 13 32 18 S 1035,2 60 0,0
13.02.2019 13:00:00 7,0 3,4 20 11 33 18 SSW 1035,8 60 0,0
13.02.2019 12:00:00 6,0 2,9 20 11 29 15 S 1036,3 60 0,0
13.02.2019 11:00:00 5,5 2,7 21 11 28 15 S 1036,1 60 0,0
13.02.2019 10:00:00 5,5 3,0 20 11 29 16 S 1036,0 15 0,0
13.02.2019 09:00:00 5,5 3,1 19 11 30 16 S 1035,6 0 0,0
13.02.2019 08:00:00 5,3 2,9 22 12 31 17 SSW 1035,2 0 0,0
13.02.2019 07:00:00 5,3 2,8 22 12 29 15 SSW 1035,1 0 0,0
13.02.2019 06:00:00 5,5 3,0 21 11 27 15 SSW 1035,2 0 0,0
13.02.2019 05:00:00 5,7 3,2 19 10 29 16 SSW 1035,2 0 0,0
13.02.2019 04:00:00 5,9 3,4 21 11 31 17 SSW 1035,3 0 0,0
13.02.2019 03:00:00 5,9 3,3 21 11 30 16 SSW 1035,2 0 0,0
13.02.2019 02:00:00 5,7 3,2 21 12 31 17 SSW 1035,5 0 0,0
13.02.2019 01:00:00 5,4 2,7 18 10 26 14 SSW 1035,6 0 0,0
13.02.2019 00:00:00 5,4 2,4 16 9 27 14 SSW 1035,5 0 0,0
12.02.2019 23:00:00 5,6 2,3 20 11 31 17 SSW 1035,0 0 0,0
12.02.2019 22:00:00 6,1 2,8 26 14 37 20 SSW 1035,0 0 0,0
12.02.2019 21:00:00 6,6 3,6 22 12 32 18 SSW 1035,0 0 0,0
12.02.2019 20:00:00 7,0 4,6 18 10 28 15 SSW 1035,1 0 0,0
12.02.2019 19:00:00 6,7 4,0 18 10 19 11 S 1034,5 0 0,0
12.02.2019 18:00:00 7,6 4,6 16 8 27 15 SW 1034,7 4 0,0
12.02.2019 17:00:00 8,0 4,4 18 10 31 17 SW 1034,5 54 0,0

tt = Température de l'air
td = dewpoint
ff = Vitesse du vent
fx = gusts
dd = Direction du vent
ppp = reduced air pressure
sd = Ensoleillement
rr = Quantités de précipitations

stations d'obs. à proximité